Latest Weather Observations for Clare

IDS60801

Issued at 5:31 pm CST Friday 1 July 2016 (issued every 30 minutes, with the page automatically refreshed every 10 minutes)

About weather observations | Map of weather stations | Latest weather observations for SA | Other Formats
Station Details ID: 021131 Name: CLARE HIGH SCHOOL Lat: -33.82 Lon: 138.59 Height: 395.0 m
Data from the previous 72 hours. | See also: Recent months at Clare
Date/Time
CST
Temp
°C
App
Temp
°C
Dew
Point
°C
Rel
Hum
%
Delta-T
°C
Wind Press
QNH
hPa
Press
MSL
hPa
Rain since
9am
mm
Dir  Spd
km/h
Gust
km/h
Spd
kts
Gust
kts
01/05:30pm 9.6 8.4 9.5 99 0.1 W 6 17 3 9 1026.9 - 0.2
01/05:00pm 9.9 7.7 9.4 97 0.3 WNW 11 19 6 10 1026.6 - 0.0
01/04:30pm 10.2 9.0 9.4 95 0.4 W 6 15 3 8 1026.5 - 0.0
01/04:00pm 10.3 9.5 9.5 95 0.4 W 4 17 2 9 1026.1 - 0.0
01/03:30pm 10.9 8.4 8.3 84 1.3 W 11 17 6 9 1025.8 - 0.0
01/03:00pm 11.1 8.0 7.4 78 1.8 WNW 13 22 7 12 1025.7 1026.4 0.0
01/02:30pm 10.8 8.0 8.7 87 1.1 WNW 13 20 7 11 1025.7 - 0.0
01/02:00pm 10.9 8.3 7.6 80 1.6 WSW 11 17 6 9 1025.8 - 0.0
01/01:30pm 10.4 8.0 8.7 89 0.9 WSW 11 17 6 9 1025.8 - 0.0
01/01:00pm 10.6 9.0 8.7 88 1.0 SW 7 11 4 6 1026.1 - 0.0
01/12:30pm 10.8 7.9 8.2 84 1.3 WSW 13 17 7 9 1026.4 - 0.0
01/12:00pm 10.6 7.7 8.2 85 1.2 W 13 20 7 11 1026.6 1027.2 0.0
01/11:30am 10.4 7.0 7.8 84 1.3 W 15 24 8 13 1026.8 - 0.0
01/11:00am 10.4 7.5 8.3 87 1.0 WSW 13 20 7 11 1027.0 - 0.0
01/10:30am 9.6 6.7 8.0 90 0.8 SW 13 20 7 11 1027.2 - 0.0
01/10:00am 8.9 7.1 7.8 93 0.5 W 7 13 4 7 1026.8 - 0.0
01/09:30am 8.0 7.5 7.9 99 0.0 CALM 0 6 0 3 1026.7 - 0.0
01/09:00am 7.0 6.3 6.9 99 0.0 CALM 0 0 0 0 1026.3 1026.9 2.8
01/08:30am 6.3 5.4 6.2 99 0.0 CALM 0 0 0 0 1025.8 - 2.8
01/08:00am 5.9 4.9 5.8 99 0.0 CALM 0 0 0 0 1025.3 - 2.8
01/07:30am 5.6 4.6 5.5 99 0.0 CALM 0 0 0 0 1025.0 - 2.8
01/07:00am 4.9 3.7 4.8 99 0.0 CALM 0 0 0 0 1024.7 - 2.8
01/06:30am 4.8 3.6 4.7 99 0.0 CALM 0 0 0 0 1024.3 - 2.8
01/06:00am 5.1 4.0 5.0 99 0.0 CALM 0 0 0 0 1023.8 1024.4 2.8
01/05:30am 5.6 4.6 5.5 99 0.0 CALM 0 0 0 0 1023.1 - 2.8
01/05:00am 5.5 4.5 5.4 99 0.0 CALM 0 0 0 0 1022.8 - 2.8
01/04:30am 5.3 4.2 5.2 99 0.0 CALM 0 0 0 0 1022.5 - 2.8
01/04:00am 5.5 4.5 5.4 99 0.0 CALM 0 6 0 3 1022.3 - 2.8
01/03:30am 5.0 3.9 4.9 99 0.0 CALM 0 0 0 0 1022.2 - 2.8
01/03:00am 4.7 3.1 4.6 99 0.0 WSW 2 7 1 4 1022.1 1022.7 2.8
01/02:30am 4.1 2.8 4.0 99 0.0 CALM 0 0 0 0 1021.9 - 2.8
01/02:00am 4.6 3.4 4.5 99 0.0 CALM 0 0 0 0 1021.8 - 2.8
01/01:30am 5.9 3.8 5.8 99 0.0 W 6 11 3 6 1021.6 - 2.8
01/01:00am 6.2 3.6 6.1 99 0.0 W 9 15 5 8 1021.7 - 2.8
01/12:30am 5.4 4.3 5.3 99 0.0 CALM 0 0 0 0 1021.6 - 2.8
01/12:00am 5.3 3.8 5.0 98 0.1 W 2 7 1 4 1021.7 1022.3 2.8
 
Date/Time
CST
Temp
°C
App
Temp
°C
Dew
Point
°C
Rel
Hum
%
Delta-T
°C
Wind Press
QNH
hPa
Press
MSL
hPa
Rain since
9am
mm
Dir  Spd
km/h
Gust
km/h
Spd
kts
Gust
kts
30/11:30pm 6.1 4.4 5.8 98 0.1 W 4 9 2 5 1021.4 - 2.8
30/11:00pm 6.2 5.2 5.8 97 0.2 CALM 0 7 0 4 1021.1 - 2.8
30/10:30pm 6.1 3.7 5.4 95 0.3 SW 7 11 4 6 1021.0 - 2.8
30/10:00pm 6.5 4.3 6.4 99 0.0 SW 7 13 4 7 1020.6 - 2.8
30/09:30pm 6.7 4.0 5.8 94 0.4 WSW 9 17 5 9 1020.6 - 2.8
30/09:00pm 6.6 4.4 5.4 92 0.5 W 6 11 3 6 1020.2 1020.7 2.8
30/08:30pm 7.0 4.0 5.9 93 0.5 WSW 11 20 6 11 1019.9 - 2.8
30/08:00pm 7.1 4.1 6.0 93 0.5 W 11 20 6 11 1019.7 - 2.8
30/07:30pm 7.2 3.7 5.5 89 0.8 W 13 24 7 13 1019.2 - 2.8
30/07:00pm 7.6 4.0 5.1 84 1.1 W 13 20 7 11 1018.9 - 2.8
30/06:30pm 7.5 3.6 5.5 87 0.9 W 15 28 8 15 1018.3 - 2.8
30/06:00pm 7.9 3.9 4.8 81 1.4 W 15 28 8 15 1017.8 1018.2 2.8
30/05:30pm 8.1 3.5 5.4 83 1.2 WSW 19 32 10 17 1016.8 - 2.8
30/05:00pm 8.8 3.5 5.2 78 1.7 WSW 22 43 12 23 1016.1 - 2.8
30/04:30pm 9.2 4.4 5.6 78 1.7 WSW 20 39 11 21 1015.8 - 2.8
30/04:00pm 10.0 3.9 4.6 69 2.5 WSW 26 44 14 24 1015.6 - 2.8
30/03:30pm 10.4 4.4 5.2 70 2.4 WSW 26 48 14 26 1015.1 - 2.8
30/03:00pm 9.9 3.8 6.6 80 1.6 WSW 28 44 15 24 1014.9 1015.3 2.8
30/02:30pm 9.4 5.1 9.3 99 0.1 WSW 22 43 12 23 1015.0 - 2.6
30/02:16pm 9.4 3.7 8.5 94 0.4 WSW 28 48 15 26 1014.8 - 2.4
30/02:00pm 10.6 5.6 9.5 93 0.6 W 26 43 14 23 1014.4 - 1.8
30/01:30pm 9.2 4.5 9.1 99 0.1 W 24 44 13 24 1014.7 - 1.8
30/01:00pm 11.3 5.1 9.2 87 1.1 W 32 54 17 29 1014.4 - 0.8
30/12:36pm 11.0 5.4 8.8 86 1.1 W 28 46 15 25 1014.4 - 0.8
30/12:30pm 10.9 5.7 8.8 87 1.1 W 26 43 14 23 1014.4 - 0.8
30/12:00pm 10.1 5.6 9.9 99 0.1 W 24 41 13 22 1014.8 1015.2 0.8
30/11:30am 9.8 4.8 9.7 99 0.1 W 26 43 14 23 1015.1 - 0.8
30/11:00am 10.3 4.3 8.7 90 0.8 WNW 30 50 16 27 1015.0 - 0.0
30/10:48am 10.5 4.8 8.4 87 1.0 WNW 28 46 15 25 1015.0 - 0.0
30/10:30am 10.1 4.7 7.9 86 1.1 WNW 26 41 14 22 1015.3 - 0.0
30/10:19am 10.5 4.7 7.9 84 1.3 WNW 28 46 15 25 1015.1 - 0.0
30/10:00am 10.0 4.2 7.8 86 1.1 WNW 28 44 15 24 1015.1 - 0.0
30/09:30am 9.4 4.1 7.0 85 1.2 WNW 24 41 13 22 1015.0 - 0.0
30/09:00am 9.1 3.7 6.4 83 1.3 WNW 24 35 13 19 1015.1 1015.5 0.0
30/08:30am 8.5 2.9 5.6 82 1.3 WNW 24 37 13 20 1014.8 - 0.0
30/08:00am 9.1 3.1 5.5 78 1.7 WNW 26 41 14 22 1014.5 - 0.0
30/07:30am 8.9 3.2 4.9 76 1.8 NW 24 39 13 21 1014.0 - 0.0
30/07:00am 8.9 3.2 4.9 76 1.8 NW 24 37 13 20 1013.8 - 0.0
30/06:30am 8.9 3.2 4.7 75 1.9 WNW 24 37 13 20 1013.8 - 0.0
30/06:00am 9.1 2.9 4.5 73 2.1 WNW 26 37 14 20 1013.6 1013.9 0.0
30/05:41am 9.1 2.6 4.5 73 2.1 WNW 28 46 15 25 1013.6 - 0.0
30/05:30am 9.1 2.9 4.5 73 2.1 WNW 26 41 14 22 1013.6 - 0.0
30/05:00am 9.4 3.6 4.6 72 2.2 WNW 24 35 13 19 1013.7 - 0.0
30/04:30am 9.9 3.4 4.7 70 2.4 NW 28 48 15 26 1013.8 - 0.0
30/04:28am 10.0 3.5 4.6 69 2.5 NW 28 48 15 26 1013.7 - 0.0
30/04:00am 9.9 3.8 4.9 71 2.3 NW 26 43 14 23 1013.6 - 0.0
30/03:49am 9.9 3.4 4.9 71 2.3 NW 28 50 15 27 1013.7 - 0.0
30/03:30am 9.5 3.8 4.9 73 2.1 NW 24 43 13 23 1013.7 - 0.0
30/03:00am 9.1 3.7 4.7 74 2.0 NW 22 39 12 21 1014.4 1014.8 0.0
30/02:30am 8.7 3.3 4.3 74 2.0 NW 22 37 12 20 1014.5 - 0.0
30/02:00am 8.9 3.1 4.3 73 2.1 NW 24 37 13 20 1014.8 - 0.0
30/01:30am 9.3 3.1 4.1 70 2.3 NW 26 43 14 23 1015.0 - 0.0
30/01:00am 9.0 3.9 4.0 71 2.2 NW 20 35 11 19 1015.4 - 0.0
30/12:30am 7.9 3.7 3.8 75 1.8 NNW 15 30 8 16 1015.5 - 0.0
30/12:00am 7.1 3.6 3.7 79 1.5 NNW 11 19 6 10 1015.8 1016.2 0.0
 
Date/Time
CST
Temp
°C
App
Temp
°C
Dew
Point
°C
Rel
Hum
%
Delta-T
°C
Wind Press
QNH
hPa
Press
MSL
hPa
Rain since
9am
mm
Dir  Spd
km/h
Gust
km/h
Spd
kts
Gust
kts
29/11:30pm 7.8 3.2 3.7 75 1.8 NNW 17 26 9 14 1016.1 - 0.0
29/11:00pm 7.9 2.7 3.8 75 1.8 NNW 20 26 11 14 1016.6 - 0.0
29/10:30pm 8.1 2.6 3.9 75 1.9 NNW 22 35 12 19 1016.8 - 0.0
29/10:00pm 8.2 2.3 3.9 74 1.9 NNW 24 43 13 23 1017.0 - 0.0
29/09:30pm 8.4 3.2 3.8 73 2.0 NNW 20 32 11 17 1017.2 - 0.0
29/09:00pm 8.2 3.6 3.7 73 2.0 N 17 26 9 14 1017.5 1017.9 0.0
29/08:30pm 8.4 3.4 3.7 72 2.1 NNW 19 35 10 19 1017.7 - 0.0
29/08:00pm 8.0 3.8 3.8 75 1.9 N 15 24 8 13 1018.0 - 0.0
29/07:30pm 8.1 3.9 3.9 75 1.9 N 15 24 8 13 1018.0 - 0.0
29/07:00pm 8.0 3.8 4.0 76 1.8 N 15 26 8 14 1018.1 - 0.0
29/06:30pm 8.1 3.6 4.3 77 1.7 N 17 28 9 15 1018.1 - 0.0
29/06:00pm 8.4 3.5 4.0 74 2.0 N 19 32 10 17 1018.3 1018.7 0.0
29/05:30pm 8.7 4.3 4.5 75 1.9 N 17 26 9 14 1018.3 - 0.0
29/05:00pm 9.4 4.4 4.6 72 2.2 NNW 20 30 11 16 1018.3 - 0.0
29/04:30pm 9.9 4.5 4.7 70 2.4 NNW 22 32 12 17 1018.5 - 0.0
29/04:00pm 9.6 4.8 4.8 72 2.2 NNW 19 32 10 17 1019.0 - 0.0
29/03:30pm 9.5 5.1 4.9 73 2.1 NNW 17 28 9 15 1019.2 - 0.0
29/03:00pm 9.5 4.7 4.7 72 2.2 NW 19 28 10 15 1019.6 1020.0 0.0
29/02:30pm 9.0 3.6 4.4 73 2.1 NW 22 32 12 17 1019.8 - 0.0
29/02:00pm 9.3 4.0 4.9 74 2.0 NNW 22 37 12 20 1020.0 - 0.0
29/01:30pm 9.5 4.1 4.7 72 2.2 NNW 22 33 12 18 1020.7 - 0.0
29/01:00pm 9.6 2.9 3.8 67 2.6 N 28 44 15 24 1021.3 - 0.0
29/12:30pm 9.6 2.6 4.0 68 2.5 N 30 48 16 26 1022.0 - 0.0
29/12:07pm 9.8 3.1 3.8 66 2.7 N 28 46 15 25 1022.3 - 0.0
29/12:00pm 9.8 3.7 4.6 70 2.4 N 26 44 14 24 1022.5 1023.0 0.0
29/11:49am 9.6 3.0 4.2 69 2.4 N 28 46 15 25 1022.6 - 0.0
29/11:30am 9.5 4.4 4.3 70 2.4 N 20 32 11 17 1023.1 - 0.0
29/11:00am 9.2 4.8 4.8 74 2.0 NNW 17 26 9 14 1023.8 - 0.0
29/10:30am 8.5 4.9 4.9 78 1.6 NNW 13 24 7 13 1024.4 - 0.0
29/10:00am 7.2 5.3 5.0 86 1.0 N 4 13 2 7 1024.8 - 0.0
29/09:30am 6.0 3.4 4.3 89 0.7 N 7 13 4 7 1024.9 - 0.0
29/09:00am 5.6 3.0 4.1 90 0.6 NW 7 15 4 8 1024.8 1025.3 0.2
29/08:30am 4.4 3.1 4.0 97 0.2 CALM 0 0 0 0 1024.8 - 0.2
29/08:00am 3.4 1.6 3.3 99 0.0 N 2 9 1 5 1024.9 - 0.2
29/07:30am 2.8 1.2 2.5 98 0.1 CALM 0 0 0 0 1024.9 - 0.2
29/07:00am 2.8 1.2 2.5 98 0.1 CALM 0 0 0 0 1024.8 - 0.2
29/06:30am 2.6 0.9 2.0 96 0.2 CALM 0 0 0 0 1024.8 - 0.2
29/06:00am 3.3 1.7 2.6 95 0.3 CALM 0 0 0 0 1024.6 1025.1 0.2
29/05:30am 3.3 1.7 2.7 96 0.2 CALM 0 0 0 0 1024.7 - 0.0
29/05:00am 3.7 1.0 2.8 94 0.4 NE 6 9 3 5 1024.6 - 0.0
29/04:30am 2.9 1.3 2.3 96 0.2 CALM 0 0 0 0 1024.7 - 0.0
29/04:00am 3.7 2.1 2.5 92 0.5 CALM 0 7 0 4 1024.7 - 0.0
29/03:30am 2.6 0.9 1.9 95 0.3 CALM 0 0 0 0 1024.8 - 0.0
29/03:00am 2.8 1.1 1.9 94 0.4 CALM 0 0 0 0 1025.1 1025.6 0.0
29/02:30am 3.6 1.9 2.1 90 0.6 CALM 0 0 0 0 1025.3 - 0.0
29/02:00am 4.5 2.9 2.4 86 0.9 CALM 0 0 0 0 1025.4 - 0.0
29/01:30am 4.1 2.6 3.1 93 0.4 CALM 0 0 0 0 1025.5 - 0.0
29/01:00am 1.4 -0.4 1.3 99 0.0 CALM 0 0 0 0 1025.6 - 0.0
29/12:30am 1.2 -0.6 1.1 99 0.0 CALM 0 0 0 0 1025.8 - 0.0
29/12:00am 0.9 -1.0 0.8 99 0.0 CALM 0 0 0 0 1026.0 1026.4 0.0
 
Date/Time
CST
Temp
°C
App
Temp
°C
Dew
Point
°C
Rel
Hum
%
Delta-T
°C
Wind Press
QNH
hPa
Press
MSL
hPa
Rain since
9am
mm
Dir  Spd
km/h
Gust
km/h
Spd
kts
Gust
kts
28/11:30pm 1.2 -0.6 1.1 99 0.0 CALM 0 0 0 0 1026.3 - 0.0
28/11:00pm 1.6 -0.2 1.5 99 0.0 CALM 0 0 0 0 1026.3 - 0.0
28/10:30pm 1.8 0.1 1.7 99 0.0 CALM 0 0 0 0 1026.3 - 0.0
28/10:00pm 2.1 0.4 2.0 99 0.0 CALM 0 0 0 0 1026.6 - 0.0
28/09:30pm 2.4 0.7 2.0 97 0.2 CALM 0 0 0 0 1026.9 - 0.0
28/09:00pm 3.1 1.6 2.8 98 0.1 CALM 0 0 0 0 1026.7 1027.2 0.0
28/08:30pm 3.4 1.8 2.7 95 0.3 CALM 0 0 0 0 1026.6 - 0.0
28/08:00pm 4.0 2.5 3.1 94 0.4 CALM 0 0 0 0 1026.6 - 0.0
28/07:30pm 4.6 3.2 3.3 91 0.5 CALM 0 0 0 0 1026.6 - 0.0
28/07:00pm 5.3 3.9 3.6 89 0.7 CALM 0 0 0 0 1026.5 - 0.0
28/06:30pm 6.1 4.7 3.6 84 1.1 CALM 0 0 0 0 1026.4 - 0.0
28/06:00pm 7.2 5.9 4.0 80 1.4 CALM 0 0 0 0 1026.5 1027.0 0.0

Other Formats:

Comma delimited format used in spreadsheet applications
http://www.bom.gov.au/fwo/IDS60801/IDS60801.95667.axf

JavaScript Object Notation format (JSON) in row-major order
http://www.bom.gov.au/fwo/IDS60801/IDS60801.95667.json